Time;durP1;ratioP1;P1;durP2;ratioP2;P2;SDS_P1;SDS_P2;PMS_P1;PMS_P2;Temp;Humidity;BMP_temperature;BMP_pressure;BME280_temperature;BME280_humidity;BME280_pressure;Samples;Min_cycle;Max_cycle;Signal;HPM_P1;HPM_P2
2021/10/19 00:01:19;;;;;;;7.25;5.07;;;;;;;8.82;63.43;101109.59;4333286;33;34036;-92
2021/10/19 00:04:10;;;;;;;9.67;5.37;;;;;;;8.74;63.56;101108.88;4346446;32;32661;-91
2021/10/19 00:06:50;;;;;;;6.40;4.72;;;;;;;8.77;63.41;101110.56;4370480;32;32938;-92
2021/10/19 00:09:41;;;;;;;8.17;5.47;;;;;;;8.72;63.41;101113.28;4363157;32;32521;-92
2021/10/19 00:12:20;;;;;;;8.48;5.57;;;;;;;8.81;62.96;101107.87;4368731;32;32592;-93
2021/10/19 00:15:13;;;;;;;9.33;4.93;;;;;;;8.79;62.79;101112.31;4371452;32;33631;-92
2021/10/19 00:17:53;;;;;;;10.80;4.82;;;;;;;8.87;62.32;101101.63;4350189;32;32713;-92
2021/10/19 00:20:44;;;;;;;7.22;4.28;;;;;;;8.73;62.40;101115.00;4343204;32;33711;-91
2021/10/19 00:23:23;;;;;;;7.03;4.37;;;;;;;8.72;62.36;101115.91;4377628;32;32114;-92
2021/10/19 00:26:10;;;;;;;7.12;4.25;;;;;;;8.69;62.43;101113.34;4324127;33;33550;-92
2021/10/19 00:28:52;;;;;;;9.68;4.47;;;;;;;8.77;62.02;101111.44;4359654;32;33577;-89
2021/10/19 00:31:20;;;;;;;7.70;4.70;;;;;;;8.75;62.03;101115.88;4376066;32;33572;-88
2021/10/19 00:33:52;;;;;;;;;;;;;;;8.79;61.76;101114.94;4376897;32;33107;-89
2021/10/19 00:36:20;;;;;;;8.45;4.80;;;;;;;8.51;62.88;101126.75;4368491;32;34951;-89
2021/10/19 00:38:47;;;;;;;7.62;4.85;;;;;;;8.58;62.78;101121.37;4358426;32;32582;-89
2021/10/19 00:41:17;;;;;;;7.53;4.90;;;;;;;8.48;62.80;101121.53;4360432;32;31976;-89
2021/10/19 00:43:46;;;;;;;8.77;5.45;;;;;;;8.51;62.71;101118.87;4349742;32;32603;-89
2021/10/19 00:46:14;;;;;;;7.50;4.75;;;;;;;8.56;62.59;101127.56;4357422;32;34554;-90
2021/10/19 00:48:46;;;;;;;8.93;4.93;;;;;;;8.52;62.54;101120.59;4368325;32;34639;-90
2021/10/19 00:51:15;;;;;;;8.70;4.65;;;;;;;8.59;62.09;101123.12;4371508;32;33070;-91
2021/10/19 00:53:44;;;;;;;6.15;4.25;;;;;;;8.48;62.41;101113.62;4373615;32;34055;-90
2021/10/19 00:56:17;;;;;;;6.95;4.37;;;;;;;8.48;62.16;101109.22;4359130;32;32668;-89
2021/10/19 00:58:44;;;;;;;7.25;3.95;;;;;;;8.52;62.12;101107.44;4370729;32;33477;-90
2021/10/19 01:01:13;;;;;;;6.65;4.20;;;;;;;8.33;62.79;101110.28;4358106;32;34448;-91
2021/10/19 01:03:42;;;;;;;8.57;4.70;;;;;;;8.34;62.76;101114.66;4361620;32;32056;-90
2021/10/19 01:06:13;;;;;;;7.72;4.95;;;;;;;8.36;62.59;101120.81;4357605;32;33096;-91
2021/10/19 01:08:41;;;;;;;7.30;4.50;;;;;;;8.26;62.77;101124.44;4357361;32;32510;-90
2021/10/19 01:11:09;;;;;;;9.73;4.57;;;;;;;8.14;63.10;101114.91;4348519;32;34635;-91
2021/10/19 01:13:36;;;;;;;8.65;4.65;;;;;;;8.35;62.37;101110.25;4361468;32;31795;-91
2021/10/19 01:16:08;;;;;;;6.93;4.60;;;;;;;8.28;62.32;101114.75;4373109;32;32932;-91
2021/10/19 01:19:01;;;;;;;8.05;4.82;;;;;;;8.36;61.89;101118.19;4333372;33;34233;-91
2021/10/19 01:21:30;;;;;;;6.10;3.97;;;;;;;8.18;62.51;101121.03;4331704;33;33114;-91
2021/10/19 01:23:58;;;;;;;5.37;4.25;;;;;;;8.21;62.33;101113.06;4319917;33;32468;-90
2021/10/19 01:26:26;;;;;;;8.20;4.45;;;;;;;7.98;63.09;101125.66;4323728;33;32822;-88
2021/10/19 01:28:53;;;;;;;7.15;4.22;;;;;;;8.19;62.39;101126.25;4324451;33;32246;-88
2021/10/19 01:31:21;;;;;;;8.32;4.87;;;;;;;7.97;63.02;101130.03;4330868;33;33932;-87
2021/10/19 01:33:49;;;;;;;6.78;3.80;;;;;;;8.04;62.92;101133.47;4330236;33;33731;-90
2021/10/19 01:36:16;;;;;;;8.70;4.78;;;;;;;8.11;62.70;101124.59;4331644;33;34390;-90
2021/10/19 01:38:45;;;;;;;4.78;3.85;;;;;;;7.82;62.88;101124.94;4347631;32;32319;-90
2021/10/19 01:41:13;;;;;;;8.85;4.90;;;;;;;7.94;62.57;101119.56;4343927;32;33191;-90
2021/10/19 01:43:42;;;;;;;5.20;3.97;;;;;;;7.95;62.71;101119.53;4343892;33;32708;-91
2021/10/19 01:46:12;;;;;;;5.65;3.95;;;;;;;8.12;62.37;101119.34;4317091;33;32420;-90
2021/10/19 01:48:41;;;;;;;8.50;3.78;;;;;;;7.99;63.02;101122.13;4340724;33;34699;-92
2021/10/19 01:51:20;;;;;;;8.75;4.85;;;;;;;8.03;63.19;101126.47;4349784;32;32682;-91
2021/10/19 01:53:49;;;;;;;6.82;3.60;;;;;;;7.87;63.38;101116.13;4326566;33;31846;-91
2021/10/19 01:56:17;;;;;;;6.50;3.85;;;;;;;7.96;63.35;101118.63;4326572;33;32421;-90
2021/10/19 01:58:45;;;;;;;8.20;3.62;;;;;;;7.72;64.14;101118.94;4337963;33;33425;-90
2021/10/19 02:01:38;;;;;;;6.28;3.83;;;;;;;7.82;63.68;101117.94;4355017;32;33107;-90
2021/10/19 02:04:23;;;;;;;7.20;4.37;;;;;;;7.89;63.40;101124.87;4330586;33;32411;-89
2021/10/19 02:06:51;;;;;;;6.18;3.70;;;;;;;8.04;62.57;101125.59;4336583;33;32234;-91
2021/10/19 02:09:35;;;;;;;6.57;3.50;;;;;;;7.92;63.08;101114.31;4347789;32;34642;-90
2021/10/19 02:12:34;;;;;;;4.45;3.20;;;;;;;7.85;63.25;101117.03;4333688;33;32713;-91
2021/10/19 02:15:04;;;;;;;5.43;3.33;;;;;;;7.77;63.40;101111.84;4348747;32;32177;-91
2021/10/19 02:17:41;;;;;;;4.53;3.08;;;;;;;7.81;63.42;101116.19;4327174;33;33259;-90
2021/10/19 02:20:09;;;;;;;4.75;3.33;;;;;;;7.80;63.74;101119.72;4344318;33;32575;-91
2021/10/19 02:23:05;;;;;;;5.18;2.87;;;;;;;7.98;63.22;101116.00;4330688;33;32863;-91
2021/10/19 02:25:33;;;;;;;7.32;3.25;;;;;;;7.91;63.43;101111.69;4321907;33;32194;-91
2021/10/19 02:28:20;;;;;;;5.95;3.72;;;;;;;8.10;62.79;101112.34;4327573;33;32781;-91
2021/10/19 02:31:07;;;;;;;8.45;3.90;;;;;;;7.99;63.08;101120.38;4333500;33;33398;-90
2021/10/19 02:33:39;;;;;;;6.62;4.07;;;;;;;8.31;62.08;101116.44;4323828;33;33047;-90
2021/10/19 02:36:07;;;;;;;6.32;3.30;;;;;;;8.14;62.80;101116.69;4323452;33;32168;-90
2021/10/19 02:38:54;;;;;;;5.30;3.33;;;;;;;7.98;63.40;101115.16;4317907;33;32688;-91
2021/10/19 02:41:35;;;;;;;5.55;3.53;;;;;;;7.75;64.29;101113.66;4349135;32;32833;-90
2021/10/19 02:44:04;;;;;;;6.05;3.47;;;;;;;7.87;63.95;101121.37;4346743;32;32432;-90
2021/10/19 02:46:31;;;;;;;8.68;4.32;;;;;;;7.83;64.20;101117.06;4350236;32;32582;-88
2021/10/19 02:49:00;;;;;;;6.10;3.80;;;;;;;7.87;64.09;101115.25;4349687;32;33635;-88
2021/10/19 02:51:28;;;;;;;9.73;4.65;;;;;;;7.99;63.37;101109.00;4353700;32;33769;-89
2021/10/19 02:53:56;;;;;;;6.00;4.25;;;;;;;7.91;63.19;101111.69;4349750;32;32837;-89
2021/10/19 02:56:24;;;;;;;5.78;3.58;;;;;;;7.74;63.49;101117.16;4362266;32;32917;-89
2021/10/19 02:58:57;;;;;;;5.90;3.45;;;;;;;7.86;63.20;101121.41;4362062;32;33695;-89
2021/10/19 03:01:25;;;;;;;7.85;4.03;;;;;;;7.88;63.26;101120.50;4350340;32;33847;-90
2021/10/19 03:03:53;;;;;;;4.53;3.58;;;;;;;7.96;63.05;101123.91;4338040;32;32736;-89
2021/10/19 03:06:21;;;;;;;6.60;3.90;;;;;;;7.83;63.46;101124.97;4362538;32;32222;-90
2021/10/19 03:08:49;;;;;;;6.55;3.72;;;;;;;7.81;63.62;101131.97;4350212;32;32446;-90
2021/10/19 03:11:17;;;;;;;5.97;3.53;;;;;;;7.83;63.51;101132.84;4362058;32;33102;-87
2021/10/19 03:13:44;;;;;;;5.07;3.62;;;;;;;7.84;63.40;101134.59;4346395;32;33997;-85
2021/10/19 03:16:16;;;;;;;5.72;3.65;;;;;;;7.63;63.36;101137.44;4349871;32;32737;-87
2021/10/19 03:18:44;;;;;;;5.68;3.53;;;;;;;7.57;63.23;101124.34;4361966;32;33508;-87
2021/10/19 03:21:11;;;;;;;5.95;3.67;;;;;;;7.72;62.94;101136.47;4361947;32;33866;-88
2021/10/19 03:23:39;;;;;;;6.72;4.40;;;;;;;7.55;63.13;101134.00;4349584;32;33207;-89
2021/10/19 03:26:07;;;;;;;7.87;3.85;;;;;;;7.79;62.41;101138.16;4349642;32;32726;-89
2021/10/19 03:28:35;;;;;;;4.55;3.22;;;;;;;7.79;62.56;101143.41;4362128;32;33227;-89
2021/10/19 03:31:02;;;;;;;5.28;3.50;;;;;;;7.83;62.37;101138.09;4349588;32;33782;-90
2021/10/19 03:33:32;;;;;;;5.75;4.05;;;;;;;7.72;62.49;101141.72;4350075;32;33286;-89
2021/10/19 03:36:01;;;;;;;6.25;3.37;;;;;;;7.78;62.27;101145.16;4349653;32;32780;-90
2021/10/19 03:38:29;;;;;;;5.75;3.47;;;;;;;7.81;62.12;101139.88;4350587;32;32998;-92
2021/10/19 03:41:29;;;;;;;7.07;3.58;;;;;;;7.82;61.93;101133.72;4337278;33;33415;-91
2021/10/19 03:44:17;;;;;;;11.63;3.87;;;;;;;7.80;61.98;101140.75;4333039;33;32850;-90
2021/10/19 03:47:05;;;;;;;6.12;4.10;;;;;;;7.61;62.73;101144.47;4342682;32;32725;-90
2021/10/19 03:49:44;;;;;;;7.22;3.45;;;;;;;7.66;62.74;101138.28;4327906;33;32499;-91
2021/10/19 03:52:35;;;;;;;6.28;3.90;;;;;;;7.49;63.22;101134.06;4355165;32;32979;-91
2021/10/19 03:55:15;;;;;;;5.28;3.22;;;;;;;7.63;62.86;101135.66;4339803;32;32564;-90
2021/10/19 03:57:55;;;;;;;6.75;3.92;;;;;;;7.64;62.47;101133.91;4368478;32;32909;-90
2021/10/19 04:00:23;;;;;;;6.28;3.95;;;;;;;7.64;62.30;101140.06;4368865;32;32975;-91
2021/10/19 04:03:15;;;;;;;10.05;4.00;;;;;;;7.71;62.04;101138.22;4332505;33;33499;-91
2021/10/19 04:05:55;;;;;;;5.30;3.30;;;;;;;7.48;62.44;101140.22;4350268;32;32730;-91
2021/10/19 04:08:59;;;;;;;4.82;3.30;;;;;;;7.56;62.30;101138.37;4332714;32;31650;-90
2021/10/19 04:11:30;;;;;;;7.28;3.92;;;;;;;7.44;62.48;101137.59;4324122;33;33241;-90
2021/10/19 04:13:58;;;;;;;5.47;3.67;;;;;;;7.67;61.84;101144.41;4311254;33;33018;-89
2021/10/19 04:16:26;;;;;;;8.48;3.75;;;;;;;7.56;62.05;101146.28;4324425;33;32272;-90
2021/10/19 04:18:54;;;;;;;8.15;4.22;;;;;;;7.49;62.28;101144.56;4311376;33;33033;-90
2021/10/19 04:21:22;;;;;;;8.02;4.45;;;;;;;7.44;62.51;101147.25;4311616;33;30911;-90
2021/10/19 04:23:50;;;;;;;8.40;4.07;;;;;;;7.12;63.90;101151.03;4333983;33;33082;-88
2021/10/19 04:26:18;;;;;;;6.00;3.70;;;;;;;7.37;63.29;101145.56;4323485;33;32650;-89
2021/10/19 04:28:46;;;;;;;12.02;4.22;;;;;;;7.37;62.88;101146.44;4322317;33;34091;-89
2021/10/19 04:31:14;;;;;;;7.10;4.03;;;;;;;7.38;62.70;101147.31;4326586;33;32623;-89
2021/10/19 04:33:41;;;;;;;10.88;4.12;;;;;;;7.47;62.40;101149.00;4310583;33;32585;-89
2021/10/19 04:36:09;;;;;;;7.03;3.75;;;;;;;7.37;62.57;101146.44;4326175;33;33509;-88
2021/10/19 04:38:37;;;;;;;5.45;3.55;;;;;;;7.44;62.20;101153.38;4325230;33;33220;-88
2021/10/19 04:41:05;;;;;;;8.35;3.90;;;;;;;7.51;62.10;101146.31;4318726;33;33782;-90
2021/10/19 04:43:33;;;;;;;8.13;3.92;;;;;;;7.57;61.74;101146.25;4297376;33;33366;-89
2021/10/19 04:46:00;;;;;;;6.87;3.62;;;;;;;7.26;62.47;101153.53;4335192;33;32246;-88
2021/10/19 04:48:29;;;;;;;6.05;3.80;;;;;;;7.29;62.34;101148.25;4323609;33;31880;-89
2021/10/19 04:50:58;;;;;;;8.63;4.15;;;;;;;7.33;62.14;101139.47;4324867;33;33902;-90
2021/10/19 04:53:27;;;;;;;8.90;5.15;;;;;;;7.41;61.76;101148.16;4326138;33;33141;-91
2021/10/19 04:56:11;;;;;;;8.77;4.45;;;;;;;7.39;61.81;101143.78;4326924;33;32511;-88
2021/10/19 04:58:39;;;;;;;9.63;4.85;;;;;;;7.27;62.45;101155.28;4306893;33;33209;-87
2021/10/19 05:01:06;;;;;;;7.82;4.62;;;;;;;7.31;62.62;101162.28;4311642;33;32939;-90
2021/10/19 05:03:35;;;;;;;7.15;4.47;;;;;;;7.16;63.09;101167.62;4321656;33;32934;-88
2021/10/19 05:06:03;;;;;;;9.63;4.07;;;;;;;7.14;63.21;101169.41;4333166;33;33170;-88
2021/10/19 05:08:30;;;;;;;6.45;4.07;;;;;;;7.18;63.37;101171.12;4332365;33;33737;-88
2021/10/19 05:10:58;;;;;;;6.35;4.65;;;;;;;7.18;63.14;101176.37;4320078;33;33781;-89
2021/10/19 05:13:26;;;;;;;12.37;4.35;;;;;;;7.27;62.64;101176.31;4308092;33;32953;-89
2021/10/19 05:15:54;;;;;;;5.70;4.15;;;;;;;7.32;62.27;101166.63;4322710;33;33090;-89
2021/10/19 05:18:22;;;;;;;5.43;3.60;;;;;;;7.32;61.99;101176.28;4322064;33;33696;-88
2021/10/19 05:20:49;;;;;;;6.78;4.12;;;;;;;7.32;61.89;101174.53;4341700;33;33332;-88
2021/10/19 05:23:19;;;;;;;5.30;4.53;;;;;;;7.14;62.39;101193.06;4320735;33;33038;-88
2021/10/19 05:25:46;;;;;;;6.40;4.30;;;;;;;7.16;62.62;101189.50;4309332;33;33028;-88
2021/10/19 05:28:14;;;;;;;6.20;4.37;;;;;;;7.09;63.00;101197.47;4294056;33;32294;-88
2021/10/19 05:30:41;;;;;;;6.95;4.45;;;;;;;7.04;63.22;101194.00;4317727;33;32720;-89
2021/10/19 05:33:09;;;;;;;8.45;4.05;;;;;;;6.86;63.63;101198.47;4317394;33;33268;-88
2021/10/19 05:35:37;;;;;;;5.95;4.45;;;;;;;7.18;62.74;101189.53;4317611;33;32752;-88
2021/10/19 05:38:04;;;;;;;8.23;4.10;;;;;;;7.28;62.35;101193.81;4317665;33;32214;-88
2021/10/19 05:40:32;;;;;;;10.02;5.30;;;;;;;7.15;62.84;101194.78;4317571;33;32537;-88
2021/10/19 05:43:00;;;;;;;5.87;4.47;;;;;;;7.18;63.06;101195.66;4317128;33;33392;-88
2021/10/19 05:45:27;;;;;;;7.87;4.32;;;;;;;7.07;64.04;101189.56;4305069;33;33544;-88
2021/10/19 05:47:55;;;;;;;10.05;4.72;;;;;;;7.11;64.23;101195.69;4308202;33;33214;-89
2021/10/19 05:50:22;;;;;;;10.05;5.25;;;;;;;7.24;63.67;101192.09;4319863;33;32353;-88
2021/10/19 05:52:50;;;;;;;11.70;5.32;;;;;;;7.27;63.86;101201.72;4319578;33;32527;-87
2021/10/19 05:55:18;;;;;;;8.50;4.90;;;;;;;7.31;63.87;101209.56;4316825;33;33545;-87
2021/10/19 05:57:45;;;;;;;15.07;6.40;;;;;;;7.60;63.12;101196.19;4325424;33;32228;-87
2021/10/19 06:00:13;;;;;;;12.52;6.18;;;;;;;7.19;64.92;101199.13;4330596;33;32729;-87
2021/10/19 06:02:41;;;;;;;17.20;5.32;;;;;;;7.42;64.36;101196.34;4305069;33;33933;-86
2021/10/19 06:05:09;;;;;;;12.75;6.55;;;;;;;7.26;64.74;101200.81;4312396;33;34413;-89
2021/10/19 06:07:36;;;;;;;10.23;6.30;;;;;;;7.46;64.29;101191.94;4308604;33;32307;-90
2021/10/19 06:10:05;;;;;;;12.85;7.43;;;;;;;7.59;64.09;101199.66;4318792;33;32989;-87
2021/10/19 06:12:32;;;;;;;11.57;6.45;;;;;;;7.66;64.29;101190.84;4333996;33;33765;-89
2021/10/19 06:15:00;;;;;;;15.98;7.32;;;;;;;7.88;63.82;101186.25;4333616;33;32631;-89
2021/10/19 06:17:27;;;;;;;11.93;6.72;;;;;;;7.94;63.78;101186.19;4321640;33;32144;-89
2021/10/19 06:19:55;;;;;;;14.40;7.07;;;;;;;8.00;64.04;101187.88;4333913;33;33129;-89
2021/10/19 06:25:52;;;;;;;11.73;7.22;;;;;;;7.98;65.34;101183.53;4334928;33;33864;-89
2021/10/19 06:28:20;;;;;;;13.52;8.60;;;;;;;8.12;65.47;101173.72;4332298;33;32699;-90
2021/10/19 06:30:48;;;;;;;12.07;8.82;;;;;;;8.35;65.24;101182.19;4306637;33;32800;-90
2021/10/19 06:33:15;;;;;;;17.20;9.13;;;;;;;8.54;65.32;101182.84;4319043;33;33284;-89
2021/10/19 06:35:43;;;;;;;15.35;10.00;;;;;;;8.85;65.86;101178.03;4330935;33;32643;-90
2021/10/19 06:38:11;;;;;;;15.05;9.18;;;;;;;9.05;65.97;101185.63;4331294;33;33057;-89
2021/10/19 06:40:38;;;;;;;10.38;6.10;;;;;;;9.02;66.77;101179.53;4332975;33;32650;-89
2021/10/19 06:43:06;;;;;;;13.77;6.43;;;;;;;9.17;66.66;101184.59;4333314;33;33954;-88
2021/10/19 06:45:34;;;;;;;12.93;7.30;;;;;;;9.35;66.83;101189.56;4309643;33;32672;-89
2021/10/19 06:48:01;;;;;;;14.82;7.93;;;;;;;9.50;66.90;101188.44;4321488;33;32406;-89
2021/10/19 06:50:29;;;;;;;12.60;7.50;;;;;;;9.44;67.21;101199.94;4306558;33;32720;-88
2021/10/19 06:52:57;;;;;;;12.88;8.07;;;;;;;9.61;67.19;101197.03;4306666;33;32565;-88
2021/10/19 06:55:24;;;;;;;13.70;7.47;;;;;;;9.69;67.03;101199.53;4306611;33;32982;-88
2021/10/19 06:58:41;;;;;;;13.30;7.47;;;;;;;9.58;68.08;101197.06;4283285;33;32702;-88
2021/10/19 07:01:09;;;;;;;12.63;6.45;;;;;;;9.85;67.60;101208.03;4318672;33;34636;-88
2021/10/19 07:03:38;;;;;;;11.05;6.70;;;;;;;10.07;66.62;101203.25;4299650;33;33914;-89
2021/10/19 07:06:06;;;;;;;13.40;6.78;;;;;;;10.16;65.70;101201.28;4320920;33;33114;-88
2021/10/19 07:08:34;;;;;;;10.75;6.10;;;;;;;10.30;65.75;101208.94;4309182;33;32284;-88
2021/10/19 07:11:02;;;;;;;14.02;6.47;;;;;;;10.15;66.36;101203.94;4309245;33;32798;-88
2021/10/19 07:13:29;;;;;;;12.98;7.40;;;;;;;10.05;66.78;101205.03;4308818;33;33292;-88
2021/10/19 07:15:57;;;;;;;22.90;7.53;;;;;;;10.34;65.87;101205.34;4309060;33;33082;-89
2021/10/19 07:18:26;;;;;;;15.13;7.95;;;;;;;10.84;64.99;101208.69;4320890;33;32670;-88
2021/10/19 07:20:54;;;;;;;16.02;8.23;;;;;;;11.10;64.64;101209.87;4297101;33;32798;-89
2021/10/19 07:23:21;;;;;;;17.62;9.07;;;;;;;11.26;64.37;101213.91;4320870;33;33829;-89
2021/10/19 07:25:50;;;;;;;15.73;9.18;;;;;;;11.22;64.78;101218.38;4309198;33;33255;-88
2021/10/19 07:28:17;;;;;;;14.95;8.65;;;;;;;11.21;65.16;101223.72;4321132;33;31811;-89
2021/10/19 07:30:45;;;;;;;16.52;9.13;;;;;;;11.09;65.88;101222.22;4309320;33;33690;-88
2021/10/19 07:33:16;;;;;;;14.27;8.82;;;;;;;11.38;65.15;101221.53;4309674;33;33025;-88
2021/10/19 07:35:43;;;;;;;16.02;9.55;;;;;;;12.00;64.17;101219.06;4309265;33;32599;-88
2021/10/19 07:38:12;;;;;;;16.85;10.07;;;;;;;12.17;63.46;101221.28;4309048;33;32885;-88
2021/10/19 07:40:40;;;;;;;15.82;10.25;;;;;;;12.28;63.38;101228.91;4321098;33;33908;-88
2021/10/19 07:43:07;;;;;;;15.73;9.18;;;;;;;12.46;62.22;101232.81;4309160;33;33592;-88
2021/10/19 07:45:35;;;;;;;18.77;9.05;;;;;;;12.62;62.65;101234.09;4308930;33;34269;-88
2021/10/19 07:48:03;;;;;;;23.00;8.65;;;;;;;12.77;61.74;101240.72;4308941;33;31849;-88
2021/10/19 07:50:31;;;;;;;18.55;9.80;;;;;;;12.92;62.02;101240.28;4320501;33;32891;-88
2021/10/19 07:53:00;;;;;;;12.88;8.50;;;;;;;13.03;61.67;101243.47;4321276;33;32643;-89
2021/10/19 07:55:30;;;;;;;13.38;9.10;;;;;;;13.20;61.27;101232.34;4308875;33;33843;-88
2021/10/19 07:57:58;;;;;;;17.90;9.27;;;;;;;13.11;61.77;101231.78;4321353;33;33166;-88
2021/10/19 08:00:27;;;;;;;14.57;9.35;;;;;;;13.48;60.53;101232.38;4320842;33;34290;-89
2021/10/19 08:02:57;;;;;;;13.65;8.63;;;;;;;13.67;60.03;101224.63;4321038;33;32915;-87
2021/10/19 08:05:25;;;;;;;15.60;10.05;;;;;;;13.76;60.34;101219.00;4308924;33;33472;-89
2021/10/19 08:08:07;;;;;;;15.85;9.85;;;;;;;13.87;58.53;101223.97;4333018;33;33501;-89
2021/10/19 08:10:37;;;;;;;16.17;10.25;;;;;;;14.02;58.41;101226.09;4308847;33;34556;-89
2021/10/19 08:13:04;;;;;;;15.57;8.85;;;;;;;14.26;58.11;101229.66;4308673;33;32486;-89
2021/10/19 08:15:33;;;;;;;17.95;9.77;;;;;;;14.35;58.25;101226.66;4308454;33;33079;-89
2021/10/19 08:18:03;;;;;;;13.05;8.40;;;;;;;14.79;57.23;101220.63;4309080;33;32646;-88
2021/10/19 08:20:30;;;;;;;12.30;8.45;;;;;;;14.33;56.87;101227.63;4320672;33;33120;-88
2021/10/19 08:22:58;;;;;;;15.18;8.02;;;;;;;14.74;56.26;101227.91;4332916;33;32878;-89
2021/10/19 08:25:26;;;;;;;10.98;6.75;;;;;;;14.67;56.61;101221.97;4320423;33;34018;-88
2021/10/19 08:27:53;;;;;;;9.60;6.53;;;;;;;14.85;54.82;101225.69;4308846;33;33343;-88
2021/10/19 08:30:21;;;;;;;8.80;5.90;;;;;;;14.74;54.57;101223.47;4319925;33;34008;-89
2021/10/19 08:32:49;;;;;;;14.50;7.35;;;;;;;15.08;54.26;101215.03;4320419;33;33335;-89
2021/10/19 08:35:19;;;;;;;11.75;7.35;;;;;;;15.18;53.96;101201.34;4296261;33;33959;-88
2021/10/19 08:37:47;;;;;;;12.07;6.95;;;;;;;15.46;54.24;101199.28;4308862;33;32607;-88
2021/10/19 08:40:16;;;;;;;10.18;6.12;;;;;;;15.33;52.95;101190.06;4320710;33;33235;-88
2021/10/19 08:42:44;;;;;;;11.77;6.32;;;;;;;15.37;52.88;101194.34;4308641;33;34660;-89
2021/10/19 08:45:14;;;;;;;11.00;6.05;;;;;;;14.88;53.61;101201.66;4320270;33;32725;-88
2021/10/19 08:47:45;;;;;;;11.07;5.93;;;;;;;15.31;52.50;101183.97;4308882;33;31994;-88
2021/10/19 08:50:16;;;;;;;12.20;7.55;;;;;;;16.15;51.29;101179.50;4305888;33;33687;-88
2021/10/19 08:52:45;;;;;;;9.13;5.12;;;;;;;16.10;52.10;101177.91;4318025;33;33024;-88
2021/10/19 08:55:12;;;;;;;10.40;5.93;;;;;;;15.57;50.53;101178.44;4317557;33;32980;-88
2021/10/19 08:57:40;;;;;;;10.95;6.07;;;;;;;15.76;51.59;101178.53;4324080;33;31938;-89
2021/10/19 09:00:09;;;;;;;13.27;5.85;;;;;;;15.76;50.12;101188.28;4320188;33;32906;-88
2021/10/19 09:02:38;;;;;;;10.60;4.97;;;;;;;15.53;51.86;101176.81;4320526;33;33248;-88
2021/10/19 09:05:14;;;;;;;10.02;6.82;;;;;;;15.91;49.99;101179.66;4302196;33;33646;-88
2021/10/19 09:08:05;;;;;;;12.85;5.85;;;;;;;15.78;50.61;101173.13;4308500;33;32623;-88
2021/10/19 09:10:35;;;;;;;12.45;7.12;;;;;;;15.76;51.19;101167.00;4305225;33;33343;-88
2021/10/19 09:13:06;;;;;;;11.90;5.97;;;;;;;15.68;51.76;101169.16;4317285;33;32496;-88
2021/10/19 09:15:40;;;;;;;12.93;6.80;;;;;;;15.79;51.25;101167.72;4305747;33;33517;-88
2021/10/19 09:18:10;;;;;;;10.45;6.62;;;;;;;15.84;50.13;101164.88;4317735;33;31935;-88
2021/10/19 09:20:45;;;;;;;13.23;7.85;;;;;;;16.23;49.85;101161.34;4305531;33;32880;-88
2021/10/19 09:23:15;;;;;;;12.80;7.95;;;;;;;16.37;49.26;101170.44;4305553;33;33265;-88
2021/10/19 09:25:44;;;;;;;11.55;8.05;;;;;;;16.16;50.92;101171.44;4305823;33;34076;-89
2021/10/19 09:28:14;;;;;;;12.35;8.20;;;;;;;16.04;50.18;101172.84;4317436;33;33876;-88
2021/10/19 09:30:46;;;;;;;18.73;8.15;;;;;;;15.36;51.51;101163.34;4324040;33;33406;-88
2021/10/19 09:33:19;;;;;;;12.13;8.50;;;;;;;15.80;50.96;101157.94;4307973;33;32635;-88
2021/10/19 09:35:50;;;;;;;17.02;7.45;;;;;;;15.79;50.70;101156.22;4319618;33;33016;-88
2021/10/19 09:38:17;;;;;;;12.20;7.55;;;;;;;16.43;49.64;101150.66;4307997;33;32391;-88
2021/10/19 09:40:47;;;;;;;14.10;7.53;;;;;;;16.34;48.70;101164.41;4308018;33;34867;-88
2021/10/19 09:43:17;;;;;;;12.63;6.80;;;;;;;16.35;50.35;101168.81;4309988;33;33965;-88
2021/10/19 09:45:46;;;;;;;14.68;7.80;;;;;;;16.17;51.68;101151.00;4319627;33;33151;-88
2021/10/19 09:48:16;;;;;;;13.50;7.75;;;;;;;16.53;50.07;101146.63;4309768;33;32163;-88
2021/10/19 09:50:46;;;;;;;14.55;6.80;;;;;;;16.71;48.74;101147.56;4309813;33;35338;-88
2021/10/19 09:53:14;;;;;;;11.45;6.60;;;;;;;16.48;48.88;101166.44;4310249;33;33310;-88
2021/10/19 09:55:42;;;;;;;9.68;5.47;;;;;;;16.81;48.27;101169.37;4332080;33;32757;-88
2021/10/19 09:58:11;;;;;;;10.00;6.45;;;;;;;16.96;47.17;101165.09;4309793;33;32254;-88
2021/10/19 10:00:39;;;;;;;21.02;8.13;;;;;;;16.94;48.65;101170.47;4321387;33;32870;-88
2021/10/19 10:03:10;;;;;;;9.20;5.40;;;;;;;17.14;47.64;101170.41;4309729;33;33338;-88
2021/10/19 10:05:39;;;;;;;10.02;5.60;;;;;;;17.24;46.37;101167.28;4300146;33;32678;-88
2021/10/19 10:08:10;;;;;;;10.45;7.35;;;;;;;17.19;46.33;101171.97;4309763;33;33368;-89
2021/10/19 10:10:38;;;;;;;9.80;7.33;;;;;;;17.03;45.04;101159.34;4321335;33;32912;-88
2021/10/19 10:13:14;;;;;;;9.80;7.05;;;;;;;16.97;45.67;101165.00;4317296;33;34275;-88
2021/10/19 10:15:42;;;;;;;10.27;7.70;;;;;;;16.97;45.73;101170.34;4309312;33;32807;-88
2021/10/19 10:18:12;;;;;;;11.27;7.68;;;;;;;17.13;44.33;101160.62;4309263;33;32737;-88
2021/10/19 10:20:42;;;;;;;11.75;6.87;;;;;;;17.17;45.78;101168.50;4321593;33;35988;-88
2021/10/19 10:23:22;;;;;;;13.20;7.57;;;;;;;17.89;44.19;101171.06;4321564;33;33186;-88
2021/10/19 10:25:52;;;;;;;12.95;7.20;;;;;;;18.62;42.55;101161.75;4321408;33;32661;-88
2021/10/19 10:28:23;;;;;;;10.70;6.60;;;;;;;18.40;42.13;101161.22;4309437;33;31795;-88
2021/10/19 10:30:51;;;;;;;9.07;6.65;;;;;;;18.55;41.54;101168.38;4321371;33;34305;-88
2021/10/19 10:33:18;;;;;;;12.50;6.30;;;;;;;18.41;42.17;101192.34;4309214;33;33775;-88
2021/10/19 10:35:47;;;;;;;12.10;6.10;;;;;;;18.36;40.88;101181.91;4306708;33;34568;-88
2021/10/19 10:38:15;;;;;;;11.63;5.95;;;;;;;17.87;41.19;101183.66;4307306;33;33054;-88
2021/10/19 10:40:44;;;;;;;9.40;6.20;;;;;;;18.24;41.84;101176.37;4318477;33;33140;-88
2021/10/19 10:43:32;;;;;;;10.70;5.28;;;;;;;18.35;42.16;101169.50;4308595;33;33011;-88
2021/10/19 10:46:01;;;;;;;6.30;5.60;;;;;;;18.86;39.66;101145.31;4319142;33;32780;-88
2021/10/19 10:48:29;;;;;;;9.05;4.97;;;;;;;18.95;39.95;101146.63;4318875;33;34161;-89
2021/10/19 10:50:57;;;;;;;7.57;5.40;;;;;;;19.06;39.47;101145.03;4312339;33;34670;-89
2021/10/19 10:53:35;;;;;;;9.18;6.35;;;;;;;18.72;41.01;101126.50;4316926;33;32687;-88
2021/10/19 10:56:04;;;;;;;9.80;6.57;;;;;;;18.85;40.66;101119.50;4321244;33;34268;-88
2021/10/19 10:58:35;;;;;;;14.98;6.97;;;;;;;18.59;41.13;101115.59;4321553;33;33287;-88
2021/10/19 11:01:22;;;;;;;9.13;6.45;;;;;;;18.62;39.93;101102.06;4321323;33;33002;-88
2021/10/19 11:03:52;;;;;;;8.13;6.18;;;;;;;19.05;39.78;101105.84;4309096;33;32682;-89
2021/10/19 11:06:22;;;;;;;14.65;6.93;;;;;;;19.17;38.99;101110.44;4322968;33;33160;-89
2021/10/19 11:08:58;;;;;;;8.68;6.32;;;;;;;19.00;39.27;101115.94;4297050;33;32235;-88
2021/10/19 11:11:26;;;;;;;10.05;7.28;;;;;;;19.35;40.11;101110.34;4297232;33;32822;-88
2021/10/19 11:14:03;;;;;;;10.63;7.25;;;;;;;19.46;39.13;101115.91;4307479;33;32738;-88
2021/10/19 11:16:45;;;;;;;9.30;6.70;;;;;;;19.44;39.14;101107.97;4310751;33;33859;-88
2021/10/19 11:19:17;;;;;;;10.10;6.18;;;;;;;19.38;38.75;101102.13;4328308;33;32813;-89
2021/10/19 11:21:50;;;;;;;9.70;6.30;;;;;;;19.28;39.58;101096.47;4316222;33;33723;-90
2021/10/19 11:24:21;;;;;;;9.98;6.00;;;;;;;19.95;38.86;101091.53;4320220;33;33391;-89
2021/10/19 11:26:49;;;;;;;15.25;7.45;;;;;;;19.89;38.77;101097.25;4308983;33;32846;-89
2021/10/19 11:29:18;;;;;;;10.27;7.32;;;;;;;19.57;40.44;101097.38;4310764;33;33775;-89
2021/10/19 11:31:46;;;;;;;10.63;7.07;;;;;;;19.43;39.77;101084.81;4296945;33;32667;-89
2021/10/19 11:34:15;;;;;;;8.07;5.87;;;;;;;20.15;38.89;101080.41;4320818;33;34371;-89
2021/10/19 11:36:43;;;;;;;11.88;7.68;;;;;;;20.74;37.84;101069.47;4308978;33;32787;-89
2021/10/19 11:39:12;;;;;;;20.10;10.25;;;;;;;20.68;38.35;101073.41;4309273;33;32242;-89
2021/10/19 11:41:44;;;;;;;17.95;9.75;;;;;;;20.69;37.19;101069.75;4316013;33;34447;-89
2021/10/19 11:44:12;;;;;;;25.55;14.57;;;;;;;20.76;38.69;101066.69;4331734;33;33796;-89
2021/10/19 11:46:41;;;;;;;24.25;19.30;;;;;;;20.94;36.64;101060.97;4306492;33;33978;-89
2021/10/19 11:49:14;;;;;;;9.35;6.57;;;;;;;20.65;37.73;101057.53;4294291;33;33247;-89